createdAt,value
2023-04-20T00:00:48.400Z,6.63
2023-04-20T00:01:48.682Z,6.72
2023-04-20T00:02:49.525Z,6.66
2023-04-20T00:03:49.023Z,6.63
2023-04-20T00:04:49.077Z,6.62
2023-04-20T00:05:49.226Z,6.58
2023-04-20T00:06:49.423Z,6.58
2023-04-20T00:07:49.554Z,6.62
2023-04-20T00:08:49.801Z,6.63
2023-04-20T00:09:51.754Z,6.61
2023-04-20T00:10:50.146Z,6.63
2023-04-20T00:11:51.260Z,6.62
2023-04-20T00:12:50.667Z,6.66
2023-04-20T00:13:50.732Z,6.68
2023-04-20T00:14:50.927Z,6.66
2023-04-20T00:15:52.847Z,6.59
2023-04-20T00:16:53.282Z,6.69
2023-04-20T00:17:52.314Z,6.63
2023-04-20T00:18:51.758Z,6.62
2023-04-20T00:19:51.912Z,6.68
2023-04-20T00:20:52.748Z,6.58
2023-04-20T00:21:52.309Z,6.59
2023-04-20T00:22:52.454Z,6.65
2023-04-20T00:23:52.650Z,6.53
2023-04-20T00:24:52.841Z,6.65
2023-04-20T00:25:53.760Z,6.61
2023-04-20T00:26:53.157Z,6.56
2023-04-20T00:27:53.344Z,6.63
2023-04-20T00:28:53.489Z,6.66
2023-04-20T00:29:54.288Z,6.61
2023-04-20T00:30:53.876Z,6.54
2023-04-20T00:31:54.297Z,6.56
2023-04-20T00:32:54.796Z,6.65
2023-04-20T00:33:54.343Z,6.66
2023-04-20T00:34:55.256Z,6.61
2023-04-20T00:35:54.657Z,6.69
2023-04-20T00:36:54.814Z,6.59
2023-04-20T00:37:54.986Z,6.62
2023-04-20T00:38:55.640Z,6.56
2023-04-20T00:39:55.896Z,6.62
2023-04-20T00:40:57.252Z,6.61
2023-04-20T00:41:55.590Z,6.63
2023-04-20T00:42:55.813Z,6.58
2023-04-20T00:43:55.841Z,6.61
2023-04-20T00:44:57.751Z,6.58
2023-04-20T00:45:57.287Z,6.54
2023-04-20T00:46:58.253Z,6.56
2023-04-20T00:47:58.295Z,6.62
2023-04-20T00:48:57.316Z,6.48
2023-04-20T00:49:58.252Z,6.53
2023-04-20T00:50:57.150Z,6.58
2023-04-20T00:51:58.299Z,6.63
2023-04-20T00:52:57.557Z,6.65
2023-04-20T00:53:57.692Z,6.63
2023-04-20T00:54:57.846Z,6.56
2023-04-20T00:55:59.754Z,6.62
2023-04-20T00:56:58.803Z,6.61
2023-04-20T00:57:58.375Z,6.61
2023-04-20T00:58:59.290Z,6.65
2023-04-20T01:00:01.263Z,6.63
2023-04-20T01:00:59.753Z,6.71
2023-04-20T01:01:59.292Z,6.63
2023-04-20T01:02:59.938Z,6.68
2023-04-20T01:03:59.489Z,6.62
2023-04-20T01:04:59.632Z,6.65
2023-04-20T01:06:00.299Z,6.59
2023-04-20T01:06:59.901Z,6.69
2023-04-20T01:08:00.124Z,6.69
2023-04-20T01:09:00.264Z,6.62
2023-04-20T01:10:03.260Z,6.69
2023-04-20T01:11:02.260Z,6.61
2023-04-20T01:12:00.760Z,6.63
2023-04-20T01:13:00.931Z,6.66
2023-04-20T01:14:01.653Z,6.56
2023-04-20T01:15:02.270Z,6.59
2023-04-20T01:16:01.560Z,6.53
2023-04-20T01:17:01.839Z,6.56
2023-04-20T01:18:02.374Z,6.50
2023-04-20T01:19:02.052Z,6.61
2023-04-20T01:20:02.229Z,6.56
2023-04-20T01:21:02.400Z,6.61
2023-04-20T01:22:02.551Z,6.53
2023-04-20T01:23:03.652Z,6.51
2023-04-20T01:24:02.885Z,6.53
2023-04-20T01:25:03.810Z,6.47
2023-04-20T01:26:03.762Z,6.54
2023-04-20T01:27:03.398Z,6.44
2023-04-20T01:28:03.673Z,6.43
2023-04-20T01:29:03.807Z,6.47
2023-04-20T01:30:04.806Z,6.44
2023-04-20T01:31:04.345Z,6.48
2023-04-20T01:32:04.811Z,6.44
2023-04-20T01:33:05.277Z,6.43
2023-04-20T01:34:04.633Z,6.54
2023-04-20T01:35:04.769Z,6.51
2023-04-20T01:36:05.322Z,6.61
2023-04-20T01:37:05.808Z,6.54
2023-04-20T01:38:05.357Z,6.56
2023-04-20T01:39:05.514Z,6.62
2023-04-20T01:40:06.339Z,6.61
2023-04-20T01:41:06.656Z,6.65
2023-04-20T01:42:07.267Z,6.59
2023-04-20T01:43:06.364Z,6.65
2023-04-20T01:44:07.825Z,6.65
2023-04-20T01:45:06.528Z,6.69
2023-04-20T01:46:06.659Z,6.76
2023-04-20T01:47:06.859Z,6.77
2023-04-20T01:48:07.055Z,6.80
2023-04-20T01:49:07.810Z,6.80
2023-04-20T01:50:07.385Z,6.73
2023-04-20T01:51:08.271Z,6.79
2023-04-20T01:52:07.783Z,6.76
2023-04-20T01:53:08.771Z,6.72
2023-04-20T01:54:08.768Z,6.80
2023-04-20T01:55:08.804Z,6.71
2023-04-20T01:56:09.308Z,6.65
2023-04-20T01:57:08.825Z,6.69
2023-04-20T01:58:10.851Z,6.62
2023-04-20T01:59:09.038Z,6.59
2023-04-20T02:00:09.342Z,6.62
2023-04-20T02:01:09.393Z,6.63
2023-04-20T02:02:10.480Z,6.63
2023-04-20T02:03:10.550Z,6.58
2023-04-20T02:04:10.893Z,6.66
2023-04-20T02:05:10.021Z,6.65
2023-04-20T02:06:10.182Z,6.65
2023-04-20T02:07:11.344Z,6.69
2023-04-20T02:08:11.320Z,6.66
2023-04-20T02:09:10.714Z,6.59
2023-04-20T02:10:11.832Z,6.61
2023-04-20T02:11:12.165Z,6.61
2023-04-20T02:12:11.286Z,6.62
2023-04-20T02:13:11.393Z,6.69
2023-04-20T02:14:13.376Z,6.61
2023-04-20T02:15:12.307Z,6.65
2023-04-20T02:16:12.772Z,6.53
2023-04-20T02:17:12.204Z,6.61
2023-04-20T02:18:34.205Z,6.59
2023-04-20T02:19:13.312Z,6.51
2023-04-20T02:20:12.659Z,6.58
2023-04-20T02:21:12.917Z,6.48
2023-04-20T02:22:13.335Z,6.51
2023-04-20T02:23:13.330Z,6.50
2023-04-20T02:24:13.834Z,6.53
2023-04-20T02:25:13.534Z,6.48
2023-04-20T02:26:14.282Z,6.51
2023-04-20T02:27:14.322Z,6.59
2023-04-20T02:28:15.281Z,6.58
2023-04-20T02:29:14.825Z,6.56
2023-04-20T02:30:14.970Z,6.61
2023-04-20T02:31:14.456Z,6.62
2023-04-20T02:32:15.321Z,6.61
2023-04-20T02:33:16.275Z,6.62
2023-04-20T02:34:15.772Z,6.65
2023-04-20T02:35:15.827Z,6.59
2023-04-20T02:36:16.778Z,6.56
2023-04-20T02:37:16.316Z,6.53
2023-04-20T02:38:16.324Z,6.47
2023-04-20T02:39:16.346Z,6.40
2023-04-20T02:40:16.021Z,6.33
2023-04-20T02:41:16.182Z,6.40
2023-04-20T02:42:16.331Z,6.32
2023-04-20T02:43:18.210Z,6.36
2023-04-20T02:44:17.645Z,6.32
2023-04-20T02:45:17.863Z,6.32
2023-04-20T02:46:17.110Z,6.32
2023-04-20T02:47:18.194Z,6.36
2023-04-20T02:48:18.322Z,6.36
2023-04-20T02:49:19.500Z,6.32
2023-04-20T02:50:18.326Z,6.29
2023-04-20T02:51:18.837Z,6.32
2023-04-20T02:52:18.779Z,6.30
2023-04-20T02:53:18.299Z,6.29
2023-04-20T02:54:19.325Z,6.18
2023-04-20T02:55:19.335Z,6.19
2023-04-20T02:56:18.702Z,6.07
2023-04-20T02:57:18.856Z,6.09
2023-04-20T02:58:19.060Z,6.09
2023-04-20T02:59:19.357Z,6.04
2023-04-20T03:00:19.381Z,6.03
2023-04-20T03:01:20.290Z,6.03
2023-04-20T03:02:20.464Z,6.01
2023-04-20T03:03:22.359Z,6.01
2023-04-20T03:04:21.374Z,6.14
2023-04-20T03:05:20.331Z,6.11
2023-04-20T03:06:21.352Z,6.01
2023-04-20T03:07:20.720Z,5.98
2023-04-20T03:08:21.348Z,6.00
2023-04-20T03:09:23.677Z,5.96
2023-04-20T03:10:21.300Z,5.92
2023-04-20T03:11:22.353Z,5.91
2023-04-20T03:12:21.606Z,5.85
2023-04-20T03:13:21.870Z,5.86
2023-04-20T03:14:22.793Z,5.77
2023-04-20T03:15:22.054Z,5.82
2023-04-20T03:16:22.251Z,5.74
2023-04-20T03:17:22.474Z,5.82
2023-04-20T03:18:23.294Z,5.82
2023-04-20T03:19:23.347Z,5.78
2023-04-20T03:20:22.885Z,5.82
2023-04-20T03:21:24.287Z,5.81
2023-04-20T03:22:23.788Z,5.78
2023-04-20T03:23:24.790Z,5.75
2023-04-20T03:24:23.580Z,5.81
2023-04-20T03:25:24.438Z,5.75
2023-04-20T03:26:24.788Z,5.78
2023-04-20T03:27:24.224Z,5.75
2023-04-20T03:28:24.421Z,5.77
2023-04-20T03:29:24.608Z,5.73
2023-04-20T03:30:24.757Z,5.67
2023-04-20T03:31:25.861Z,5.70
2023-04-20T03:32:25.808Z,5.71
2023-04-20T03:33:25.848Z,5.70
2023-04-20T03:34:26.311Z,5.64
2023-04-20T03:35:26.332Z,5.64
2023-04-20T03:36:25.846Z,5.56
2023-04-20T03:37:27.833Z,5.57
2023-04-20T03:38:26.240Z,5.57
2023-04-20T03:39:26.415Z,5.60
2023-04-20T03:40:26.578Z,5.59
2023-04-20T03:41:26.750Z,5.52
2023-04-20T03:42:27.793Z,5.60
2023-04-20T03:43:27.079Z,5.68
2023-04-20T03:44:27.214Z,5.56
2023-04-20T03:45:27.391Z,5.63
2023-04-20T03:46:28.392Z,5.59
2023-04-20T03:47:28.368Z,5.57
2023-04-20T03:48:28.037Z,5.60
2023-04-20T03:49:28.200Z,5.60
2023-04-20T03:50:29.337Z,5.46
2023-04-20T03:51:30.180Z,5.46
2023-04-20T03:52:28.649Z,5.38
2023-04-20T03:53:30.296Z,5.27
2023-04-20T03:54:29.833Z,5.37
2023-04-20T03:55:29.801Z,5.13
2023-04-20T03:56:30.295Z,5.35
2023-04-20T03:57:30.340Z,5.27
2023-04-20T03:58:29.850Z,5.31
2023-04-20T03:59:29.887Z,5.31
2023-04-20T04:00:30.725Z,5.23
2023-04-20T04:01:30.841Z,5.32
2023-04-20T04:02:31.528Z,5.32
2023-04-20T04:03:30.918Z,5.20
2023-04-20T04:04:31.215Z,5.30
2023-04-20T04:05:31.295Z,5.28
2023-04-20T04:06:31.356Z,5.22
2023-04-20T04:07:32.353Z,5.20
2023-04-20T04:08:32.568Z,5.27
2023-04-20T04:09:33.295Z,5.23
2023-04-20T04:10:32.126Z,5.22
2023-04-20T04:11:32.795Z,5.20
2023-04-20T04:12:32.404Z,5.25
2023-04-20T04:13:34.823Z,5.25
2023-04-20T04:14:33.786Z,5.25
2023-04-20T04:15:32.894Z,5.10
2023-04-20T04:16:33.067Z,5.25
2023-04-20T04:17:33.252Z,5.25
2023-04-20T04:18:33.436Z,5.23
2023-04-20T04:19:33.579Z,5.35
2023-04-20T04:20:33.848Z,5.27
2023-04-20T04:21:36.300Z,5.20
2023-04-20T04:22:34.352Z,5.30
2023-04-20T04:23:36.798Z,5.25
2023-04-20T04:24:34.465Z,5.20
2023-04-20T04:25:34.708Z,5.10
2023-04-20T04:26:35.340Z,5.13
2023-04-20T04:27:34.949Z,5.16
2023-04-20T04:28:35.847Z,5.22
2023-04-20T04:29:36.308Z,5.19
2023-04-20T04:30:35.643Z,5.16
2023-04-20T04:31:35.765Z,5.25
2023-04-20T04:32:35.919Z,5.23
2023-04-20T04:33:37.820Z,5.22
2023-04-20T04:34:36.274Z,5.31
2023-04-20T04:35:36.478Z,5.27
2023-04-20T04:36:37.313Z,5.31
2023-04-20T04:37:38.312Z,5.23
2023-04-20T04:38:36.908Z,5.14
2023-04-20T04:39:37.062Z,5.27
2023-04-20T04:40:37.228Z,5.25
2023-04-20T04:41:37.371Z,5.22
2023-04-20T04:42:38.339Z,5.23
2023-04-20T04:43:37.700Z,5.22
2023-04-20T04:44:37.867Z,5.28
2023-04-20T04:45:39.306Z,5.25
2023-04-20T04:46:39.842Z,5.25
2023-04-20T04:47:39.384Z,5.22
2023-04-20T04:48:40.365Z,5.20
2023-04-20T04:49:38.729Z,5.16
2023-04-20T04:50:38.837Z,5.23
2023-04-20T04:51:40.828Z,5.12
2023-04-20T04:52:39.293Z,5.13
2023-04-20T04:53:41.312Z,5.10
2023-04-20T04:54:39.678Z,5.20
2023-04-20T04:55:39.852Z,5.09
2023-04-20T04:56:40.010Z,5.16
2023-04-20T04:57:41.152Z,5.20
2023-04-20T04:58:42.316Z,5.20
2023-04-20T04:59:41.703Z,5.10
2023-04-20T05:00:41.683Z,5.07
2023-04-20T05:01:40.937Z,5.02
2023-04-20T05:02:41.309Z,5.04
2023-04-20T05:03:42.049Z,5.19
2023-04-20T05:04:42.104Z,5.13
2023-04-20T05:05:42.366Z,4.99
2023-04-20T05:06:41.718Z,5.12
2023-04-20T05:07:43.310Z,5.13
2023-04-20T05:08:42.069Z,5.09
2023-04-20T05:09:42.205Z,5.16
2023-04-20T05:10:42.355Z,5.17
2023-04-20T05:11:42.499Z,5.13
2023-04-20T05:12:42.699Z,5.19
2023-04-20T05:13:42.884Z,5.14
2023-04-20T05:14:43.028Z,5.07
2023-04-20T05:15:43.993Z,5.12
2023-04-20T05:16:45.450Z,5.09
2023-04-20T05:17:43.780Z,5.01
2023-04-20T05:18:44.356Z,4.99
2023-04-20T05:19:44.823Z,4.92
2023-04-20T05:20:44.083Z,4.91
2023-04-20T05:21:44.254Z,4.95
2023-04-20T05:22:45.349Z,4.86
2023-04-20T05:23:44.589Z,4.84
2023-04-20T05:24:46.317Z,4.83
2023-04-20T05:25:45.847Z,4.76
2023-04-20T05:26:45.751Z,4.70
2023-04-20T05:27:45.369Z,4.65
2023-04-20T05:28:45.520Z,4.62
2023-04-20T05:29:45.675Z,4.59
2023-04-20T05:30:46.359Z,4.70
2023-04-20T05:31:46.856Z,4.58
2023-04-20T05:32:47.706Z,4.64
2023-04-20T05:33:47.378Z,4.54
2023-04-20T05:34:47.422Z,4.50
2023-04-20T05:35:47.474Z,4.51
2023-04-20T05:36:47.847Z,4.37
2023-04-20T05:37:47.994Z,4.47
2023-04-20T05:38:48.357Z,4.54
2023-04-20T05:39:47.585Z,4.47
2023-04-20T05:40:47.857Z,4.46
2023-04-20T05:41:48.036Z,4.51
2023-04-20T05:42:50.314Z,4.52
2023-04-20T05:43:48.392Z,4.61
2023-04-20T05:44:48.535Z,4.54
2023-04-20T05:45:50.334Z,4.61
2023-04-20T05:46:49.381Z,4.62
2023-04-20T05:47:49.883Z,4.59
2023-04-20T05:48:50.214Z,4.64
2023-04-20T05:49:49.442Z,4.69
2023-04-20T05:50:49.576Z,4.67
2023-04-20T05:51:50.366Z,4.69
2023-04-20T05:52:50.820Z,4.76
2023-04-20T05:53:50.027Z,4.67
2023-04-20T05:54:50.824Z,4.70
2023-04-20T05:55:50.450Z,4.70
2023-04-20T05:56:50.598Z,4.70
2023-04-20T05:57:52.499Z,4.64
2023-04-20T05:58:51.887Z,4.76
2023-04-20T05:59:51.368Z,4.76
2023-04-20T06:00:51.228Z,4.86
2023-04-20T06:01:52.330Z,4.75
2023-04-20T06:02:52.495Z,4.83
2023-04-20T06:03:52.134Z,4.84
2023-04-20T06:04:52.125Z,4.77
2023-04-20T06:05:52.456Z,4.80
2023-04-20T06:06:52.859Z,4.92
2023-04-20T06:07:52.588Z,4.86
2023-04-20T06:08:52.911Z,4.89
2023-04-20T06:09:52.919Z,4.95
2023-04-20T06:10:53.888Z,4.92
2023-04-20T06:11:53.406Z,4.92
2023-04-20T06:12:54.425Z,4.91
2023-04-20T06:13:54.404Z,4.92
2023-04-20T06:14:55.330Z,4.98
2023-04-20T06:15:54.949Z,4.99
2023-04-20T06:16:54.130Z,5.05
2023-04-20T06:17:54.380Z,5.01
2023-04-20T06:18:55.331Z,5.01
2023-04-20T06:19:54.716Z,5.02
2023-04-20T06:20:55.921Z,5.04
2023-04-20T06:21:55.833Z,5.05
2023-04-20T06:22:55.240Z,5.05
2023-04-20T06:23:57.328Z,4.98
2023-04-20T06:24:56.329Z,4.95
2023-04-20T06:25:56.334Z,5.02
2023-04-20T06:26:55.997Z,5.05
2023-04-20T06:27:56.149Z,5.02
2023-04-20T06:28:56.286Z,4.95
2023-04-20T06:29:56.494Z,4.99
2023-04-20T06:30:57.244Z,4.89
2023-04-20T06:31:56.849Z,4.92
2023-04-20T06:32:58.866Z,4.94
2023-04-20T06:33:57.268Z,4.95
2023-04-20T06:34:57.444Z,4.99
2023-04-20T06:35:58.402Z,5.05
2023-04-20T06:36:57.809Z,5.10
2023-04-20T06:37:57.938Z,5.04
2023-04-20T06:38:58.875Z,4.98
2023-04-20T06:39:58.283Z,5.01
2023-04-20T06:40:58.436Z,4.96
2023-04-20T06:41:58.570Z,4.96
2023-04-20T06:42:59.330Z,4.96
2023-04-20T06:43:59.898Z,4.98
2023-04-20T06:44:59.884Z,4.98
2023-04-20T06:45:59.392Z,5.04
2023-04-20T06:46:59.587Z,4.99
2023-04-20T06:47:59.725Z,4.98
2023-04-20T06:48:59.929Z,4.98
2023-04-20T06:50:00.883Z,4.92
2023-04-20T06:51:00.281Z,4.98
2023-04-20T06:52:00.698Z,4.91
2023-04-20T06:53:01.320Z,4.88
2023-04-20T06:54:02.337Z,4.92
2023-04-20T06:55:00.961Z,4.84
2023-04-20T06:56:01.119Z,4.84
2023-04-20T06:57:01.326Z,4.88
2023-04-20T06:58:01.570Z,4.83
2023-04-20T06:59:02.371Z,4.86
2023-04-20T07:00:01.897Z,4.92
2023-04-20T07:01:02.067Z,4.94
2023-04-20T07:02:02.643Z,4.88
2023-04-20T07:03:02.505Z,4.83
2023-04-20T07:04:02.790Z,4.94
2023-04-20T07:05:02.865Z,4.92
2023-04-20T07:06:02.941Z,4.91
2023-04-20T07:07:03.990Z,4.89
2023-04-20T07:08:03.842Z,4.80
2023-04-20T07:09:03.490Z,4.83
2023-04-20T07:10:03.655Z,4.77
2023-04-20T07:11:03.788Z,4.76
2023-04-20T07:12:03.949Z,4.77
2023-04-20T07:13:06.329Z,4.83
2023-04-20T07:14:04.282Z,4.77
2023-04-20T07:15:04.437Z,4.79
2023-04-20T07:16:04.660Z,4.84
2023-04-20T07:17:04.802Z,4.79
2023-04-20T07:18:07.899Z,4.79
2023-04-20T07:19:05.876Z,4.84
2023-04-20T07:20:05.880Z,4.89
2023-04-20T07:21:06.848Z,4.92
2023-04-20T07:22:07.455Z,4.94
2023-04-20T07:23:05.924Z,4.99
2023-04-20T07:24:06.065Z,4.89
2023-04-20T07:25:06.192Z,4.70
2023-04-20T07:26:06.330Z,4.80
2023-04-20T07:27:07.445Z,4.83
2023-04-20T07:28:06.606Z,4.80
2023-04-20T07:29:06.752Z,4.80
2023-04-20T07:30:07.877Z,4.65
2023-04-20T07:31:07.891Z,4.62
2023-04-20T07:32:07.187Z,4.59
2023-04-20T07:33:07.455Z,4.67
2023-04-20T07:34:09.341Z,4.52
2023-04-20T07:35:07.901Z,4.62
2023-04-20T07:36:08.883Z,4.64
2023-04-20T07:37:08.142Z,4.54
2023-04-20T07:38:08.364Z,4.51
2023-04-20T07:39:09.379Z,4.54
2023-04-20T07:40:09.355Z,4.39
2023-04-20T07:41:08.859Z,4.33
2023-04-20T07:42:09.840Z,4.36
2023-04-20T07:43:09.907Z,4.34
2023-04-20T07:44:09.385Z,4.34
2023-04-20T07:45:10.389Z,4.40
2023-04-20T07:46:09.760Z,4.25
2023-04-20T07:47:09.947Z,4.25
2023-04-20T07:48:10.127Z,4.36
2023-04-20T07:49:10.260Z,4.28
2023-04-20T07:50:10.426Z,4.37
2023-04-20T07:51:11.388Z,4.46
2023-04-20T07:52:16.930Z,4.46
2023-04-20T07:53:13.369Z,4.51
2023-04-20T07:54:11.053Z,4.51
2023-04-20T07:55:11.181Z,4.59
2023-04-20T07:56:13.346Z,4.64
2023-04-20T07:57:12.866Z,4.73
2023-04-20T07:58:11.715Z,4.80
2023-04-20T07:59:11.962Z,4.96
2023-04-20T08:00:12.931Z,5.04
2023-04-20T08:01:12.351Z,5.12
2023-04-20T08:02:12.614Z,5.25
2023-04-20T08:03:12.832Z,5.25
2023-04-20T08:04:13.250Z,5.28
2023-04-20T08:05:13.400Z,5.37
2023-04-20T08:06:13.486Z,5.38
2023-04-20T08:07:14.089Z,5.49
2023-04-20T08:08:13.591Z,5.64
2023-04-20T08:09:14.046Z,5.56
2023-04-20T08:10:13.960Z,5.68
2023-04-20T08:11:14.121Z,5.71
2023-04-20T08:12:14.890Z,5.93
2023-04-20T08:13:14.389Z,6.16
2023-04-20T08:14:15.379Z,6.26
2023-04-20T08:15:14.786Z,6.10
2023-04-20T08:16:15.005Z,6.06
2023-04-20T08:17:15.175Z,6.09
2023-04-20T08:18:15.343Z,6.33
2023-04-20T08:19:15.543Z,6.33
2023-04-20T08:20:15.744Z,6.01
2023-04-20T08:21:15.921Z,6.09
2023-04-20T08:22:16.085Z,6.25
2023-04-20T08:23:16.233Z,6.06
2023-04-20T08:24:17.674Z,5.96
2023-04-20T08:25:16.647Z,5.83
2023-04-20T08:26:16.822Z,5.66
2023-04-20T08:27:17.902Z,5.59
2023-04-20T08:28:32.397Z,5.52
2023-04-20T08:29:19.314Z,5.49
2023-04-20T08:30:18.417Z,5.60
2023-04-20T08:31:18.429Z,5.64
2023-04-20T08:32:17.812Z,5.67
2023-04-20T08:33:18.853Z,5.71
2023-04-20T08:34:18.118Z,5.78
2023-04-20T08:35:18.238Z,5.89
2023-04-20T08:36:19.382Z,5.95
2023-04-20T08:37:18.488Z,5.91
2023-04-20T08:38:23.715Z,6.04
2023-04-20T08:39:20.503Z,6.04
2023-04-20T08:40:20.118Z,6.07
2023-04-20T08:41:19.250Z,5.93
2023-04-20T08:42:20.846Z,6.06
2023-04-20T08:43:22.029Z,6.07
2023-04-20T08:44:20.777Z,6.13
2023-04-20T08:45:20.027Z,6.28
2023-04-20T08:46:20.179Z,6.13
2023-04-20T08:47:20.339Z,5.98
2023-04-20T08:48:21.422Z,5.95
2023-04-20T08:49:21.362Z,6.01
2023-04-20T08:50:20.844Z,6.21
2023-04-20T08:51:21.000Z,6.07
2023-04-20T08:52:21.146Z,6.09
2023-04-20T08:53:21.274Z,6.16
2023-04-20T08:54:24.274Z,6.32
2023-04-20T08:55:21.620Z,6.13
2023-04-20T08:56:22.883Z,6.09
2023-04-20T08:57:22.011Z,6.22
2023-04-20T08:58:22.170Z,6.29
2023-04-20T08:59:22.966Z,6.41
2023-04-20T09:00:23.410Z,6.33
2023-04-20T09:01:32.172Z,6.25
2023-04-20T09:02:25.078Z,6.18
2023-04-20T09:03:23.105Z,6.14
2023-04-20T09:04:23.530Z,6.10
2023-04-20T09:05:23.453Z,6.26
2023-04-20T09:06:23.862Z,6.09
2023-04-20T09:07:23.538Z,6.04
2023-04-20T09:08:24.398Z,5.95
2023-04-20T09:09:23.790Z,6.14
2023-04-20T09:10:23.975Z,5.92
2023-04-20T09:11:24.162Z,5.88
2023-04-20T09:12:24.329Z,5.91
2023-04-20T09:13:24.526Z,6.03
2023-04-20T09:14:26.360Z,6.09
2023-04-20T09:15:24.897Z,6.13
2023-04-20T09:16:25.900Z,6.13
2023-04-20T09:17:25.894Z,6.09
2023-04-20T09:18:25.410Z,6.13
2023-04-20T09:19:26.858Z,6.22
2023-04-20T09:20:25.714Z,6.38
2023-04-20T09:21:25.870Z,6.41
2023-04-20T09:22:26.024Z,6.66
2023-04-20T09:23:26.907Z,6.76
2023-04-20T09:24:26.412Z,6.76
2023-04-20T09:25:28.442Z,6.84
2023-04-20T09:26:27.789Z,6.87
2023-04-20T09:27:27.424Z,6.87
2023-04-20T09:28:27.061Z,7.01
2023-04-20T09:29:27.226Z,7.13
2023-04-20T09:30:28.864Z,7.49
2023-04-20T09:31:28.460Z,7.41
2023-04-20T09:32:27.743Z,7.42
2023-04-20T09:33:27.958Z,7.55
2023-04-20T09:34:28.169Z,7.89
2023-04-20T09:35:28.415Z,7.79
2023-04-20T09:36:29.405Z,7.75
2023-04-20T09:37:28.926Z,7.72
2023-04-20T09:38:29.395Z,7.63
2023-04-20T09:39:30.905Z,7.38
2023-04-20T09:40:29.929Z,7.12
2023-04-20T09:41:29.426Z,7.23
2023-04-20T09:42:30.613Z,7.09
2023-04-20T09:43:29.747Z,7.07
2023-04-20T09:44:29.924Z,7.13
2023-04-20T09:45:30.920Z,6.99
2023-04-20T09:46:30.949Z,7.02
2023-04-20T09:47:30.457Z,7.15
2023-04-20T09:48:32.115Z,7.08
2023-04-20T09:49:30.874Z,7.05
2023-04-20T09:50:45.731Z,7.13
2023-04-20T09:51:33.201Z,7.07
2023-04-20T09:52:31.395Z,6.84
2023-04-20T09:53:31.567Z,6.87
2023-04-20T09:54:32.413Z,6.94
2023-04-20T09:55:32.866Z,6.72
2023-04-20T09:56:32.153Z,6.71
2023-04-20T09:57:32.285Z,6.83
2023-04-20T09:58:32.427Z,6.95
2023-04-20T09:59:32.576Z,6.84
2023-04-20T10:00:33.368Z,6.87
2023-04-20T10:01:33.444Z,7.24
2023-04-20T10:02:34.971Z,7.66
2023-04-20T10:03:33.329Z,7.66
2023-04-20T10:04:33.450Z,7.41
2023-04-20T10:05:33.937Z,7.32
2023-04-20T10:06:33.729Z,7.32
2023-04-20T10:07:33.902Z,7.34
2023-04-20T10:08:34.092Z,7.45
2023-04-20T10:09:34.290Z,7.47
2023-04-20T10:10:34.452Z,7.26
2023-04-20T10:11:49.059Z,7.17
2023-04-20T10:12:36.979Z,7.05
2023-04-20T10:13:36.372Z,7.09
2023-04-20T10:14:35.110Z,7.20
2023-04-20T10:15:36.895Z,7.27
2023-04-20T10:16:36.435Z,7.29
2023-04-20T10:17:35.664Z,7.26
2023-04-20T10:18:35.783Z,7.35
2023-04-20T10:19:37.373Z,7.38
2023-04-20T10:20:35.992Z,7.37
2023-04-20T10:21:36.150Z,7.38
2023-04-20T10:22:36.326Z,7.42
2023-04-20T10:23:36.478Z,7.60
2023-04-20T10:24:37.418Z,7.79
2023-04-20T10:25:36.812Z,7.89
2023-04-20T10:26:36.989Z,7.93
2023-04-20T10:27:37.449Z,7.72
2023-04-20T10:28:37.387Z,7.59
2023-04-20T10:29:37.536Z,7.60
2023-04-20T10:30:38.448Z,7.59
2023-04-20T10:31:38.556Z,7.71
2023-04-20T10:32:39.968Z,7.85
2023-04-20T10:33:38.215Z,7.93
2023-04-20T10:34:38.409Z,8.10
2023-04-20T10:35:38.931Z,8.07
2023-04-20T10:36:39.416Z,8.15
2023-04-20T10:37:40.377Z,8.26
2023-04-20T10:38:39.917Z,8.25
2023-04-20T10:39:39.938Z,8.20
2023-04-20T10:40:39.943Z,8.20
2023-04-20T10:41:40.421Z,8.29
2023-04-20T10:42:40.488Z,8.26
2023-04-20T10:43:40.878Z,8.40
2023-04-20T10:44:40.453Z,8.39
2023-04-20T10:45:40.484Z,8.36
2023-04-20T10:46:41.704Z,8.25
2023-04-20T10:47:40.831Z,8.42
2023-04-20T10:48:40.960Z,8.50
2023-04-20T10:49:41.113Z,8.91
2023-04-20T10:50:41.824Z,9.01
2023-04-20T10:51:42.504Z,9.25
2023-04-20T10:52:42.271Z,9.23
2023-04-20T10:53:41.825Z,9.23
2023-04-20T10:54:42.889Z,9.50
2023-04-20T10:55:42.014Z,9.38
2023-04-20T10:56:42.955Z,9.18
2023-04-20T10:57:42.952Z,9.12
2023-04-20T10:58:42.524Z,8.90
2023-04-20T10:59:43.424Z,8.75
2023-04-20T11:00:45.273Z,8.73
2023-04-20T11:01:43.925Z,8.78
2023-04-20T11:02:43.449Z,8.76
2023-04-20T11:03:43.613Z,8.44
2023-04-20T11:04:44.482Z,8.39
2023-04-20T11:05:44.896Z,8.36
2023-04-20T11:06:44.026Z,8.37
2023-04-20T11:07:45.376Z,8.44
2023-04-20T11:08:45.378Z,8.28
2023-04-20T11:09:45.427Z,8.32
2023-04-20T11:10:44.696Z,8.25
2023-04-20T11:11:44.861Z,8.28
2023-04-20T11:12:45.468Z,8.35
2023-04-20T11:13:45.270Z,8.55
2023-04-20T11:14:46.427Z,8.50
2023-04-20T11:15:45.721Z,8.50
2023-04-20T11:16:51.518Z,8.37
2023-04-20T11:17:48.199Z,8.45
2023-04-20T11:18:46.934Z,8.66
2023-04-20T11:19:46.503Z,8.69
2023-04-20T11:20:46.712Z,8.65
2023-04-20T11:21:46.875Z,8.33
2023-04-20T11:22:48.889Z,8.21
2023-04-20T11:23:48.337Z,8.12
2023-04-20T11:24:48.395Z,8.21
2023-04-20T11:25:48.426Z,7.90
2023-04-20T11:26:48.432Z,7.94
2023-04-20T11:27:49.055Z,7.87
2023-04-20T11:28:48.928Z,8.08
2023-04-20T11:29:48.326Z,8.10
2023-04-20T11:30:48.507Z,8.11
2023-04-20T11:31:49.620Z,8.20
2023-04-20T11:32:48.886Z,8.12
2023-04-20T11:33:49.950Z,7.89
2023-04-20T11:34:55.972Z,7.96
2023-04-20T11:35:51.936Z,7.97
2023-04-20T11:36:50.280Z,8.10
2023-04-20T11:37:49.644Z,8.30
2023-04-20T11:38:50.409Z,8.18
2023-04-20T11:39:51.393Z,8.26
2023-04-20T11:40:50.111Z,8.37
2023-04-20T11:41:50.271Z,8.53
2023-04-20T11:42:50.423Z,8.72
2023-04-20T11:43:50.709Z,8.87
2023-04-20T11:44:50.758Z,9.10
2023-04-20T11:45:50.982Z,9.35
2023-04-20T11:46:52.074Z,9.53
2023-04-20T11:47:51.285Z,9.46
2023-04-20T11:48:51.459Z,9.38
2023-04-20T11:49:51.657Z,9.49
2023-04-20T11:50:52.399Z,9.32
2023-04-20T11:51:52.899Z,9.12
2023-04-20T11:52:52.281Z,9.15
2023-04-20T11:53:52.442Z,9.20
2023-04-20T11:54:52.579Z,9.42
2023-04-20T11:55:52.935Z,9.56
2023-04-20T11:56:54.954Z,9.63
2023-04-20T11:57:53.178Z,9.56
2023-04-20T11:58:53.356Z,9.67
2023-04-20T11:59:54.409Z,9.48
2023-04-20T12:00:53.786Z,9.31
2023-04-20T12:01:53.961Z,9.25
2023-04-20T12:02:54.346Z,9.13
2023-04-20T12:03:54.568Z,8.99
2023-04-20T12:04:54.587Z,8.96
2023-04-20T12:05:54.748Z,9.02
2023-04-20T12:06:54.914Z,9.01
2023-04-20T12:07:55.904Z,9.02
2023-04-20T12:08:55.944Z,9.20
2023-04-20T12:09:55.439Z,9.10
2023-04-20T12:10:57.344Z,9.24
2023-04-20T12:11:56.958Z,9.35
2023-04-20T12:12:55.963Z,9.42
2023-04-20T12:13:56.225Z,9.31
2023-04-20T12:14:56.362Z,9.23
2023-04-20T12:15:57.418Z,9.20
2023-04-20T12:16:58.684Z,9.18
2023-04-20T12:17:57.468Z,9.04
2023-04-20T12:18:57.909Z,8.97
2023-04-20T12:19:57.282Z,8.81
2023-04-20T12:20:58.907Z,8.75
2023-04-20T12:21:57.653Z,8.68
2023-04-20T12:22:59.075Z,8.57
2023-04-20T12:23:58.959Z,8.60
2023-04-20T12:24:58.114Z,8.63
2023-04-20T12:25:58.903Z,8.62
2023-04-20T12:26:59.518Z,8.63
2023-04-20T12:27:59.473Z,8.54
2023-04-20T12:28:58.851Z,8.57
2023-04-20T12:29:59.419Z,8.53
2023-04-20T12:30:59.099Z,8.47
2023-04-20T12:32:00.156Z,8.72
2023-04-20T12:32:59.506Z,8.83
2023-04-20T12:34:00.460Z,9.18
2023-04-20T12:34:59.768Z,9.28
2023-04-20T12:36:01.294Z,9.23
2023-04-20T12:37:00.977Z,9.13
2023-04-20T12:38:00.912Z,9.06
2023-04-20T12:39:00.453Z,9.01
2023-04-20T12:40:00.591Z,8.97
2023-04-20T12:41:00.724Z,8.90
2023-04-20T12:42:01.464Z,9.13
2023-04-20T12:43:01.973Z,9.16
2023-04-20T12:44:04.136Z,9.09
2023-04-20T12:45:02.419Z,9.06
2023-04-20T12:46:03.302Z,9.10
2023-04-20T12:47:02.127Z,9.39
2023-04-20T12:48:02.492Z,9.67
2023-04-20T12:49:03.295Z,10.06
2023-04-20T12:50:02.965Z,10.14
2023-04-20T12:51:02.459Z,10.17
2023-04-20T12:52:05.719Z,10.07
2023-04-20T12:53:04.302Z,10.07
2023-04-20T12:54:03.411Z,10.07
2023-04-20T12:55:02.992Z,9.91
2023-04-20T12:56:03.158Z,9.97
2023-04-20T12:57:03.978Z,9.75
2023-04-20T12:58:03.503Z,9.99
2023-04-20T12:59:03.758Z,10.12
2023-04-20T13:00:04.042Z,10.18
2023-04-20T13:01:04.184Z,10.15
2023-04-20T13:02:04.470Z,10.19
2023-04-20T13:03:05.514Z,10.42
2023-04-20T13:04:04.903Z,10.39
2023-04-20T13:05:04.909Z,10.55
2023-04-20T13:06:04.946Z,10.71
2023-04-20T13:07:05.160Z,10.95
2023-04-20T13:08:05.960Z,11.16
2023-04-20T13:09:05.474Z,11.38
2023-04-20T13:10:06.926Z,11.52
2023-04-20T13:11:05.808Z,11.53
2023-04-20T13:12:05.977Z,11.44
2023-04-20T13:13:06.134Z,11.34
2023-04-20T13:14:06.954Z,11.16
2023-04-20T13:15:08.437Z,10.98
2023-04-20T13:16:07.513Z,10.65
2023-04-20T13:17:06.973Z,10.34
2023-04-20T13:18:07.215Z,10.28
2023-04-20T13:19:07.263Z,10.24
2023-04-20T13:20:07.959Z,10.14